Time;durP1;ratioP1;P1;durP2;ratioP2;P2;SDS_P1;SDS_P2;PMS_P1;PMS_P2;Temp;Humidity;BMP_temperature;BMP_pressure;BME280_temperature;BME280_humidity;BME280_pressure;Samples;Min_cycle;Max_cycle;Signal;HPM_P1;HPM_P2
2022/12/25 00:02:45;;;;;;;10.98;3.58;;;10.20;99.90;;;;;;6250661;28;20069;-81
2022/12/25 00:05:46;;;;;;;6.38;3.25;;;10.20;99.90;;;;;;6254354;28;20049;-83
2022/12/25 00:08:49;;;;;;;5.38;2.10;;;10.20;99.90;;;;;;6254691;28;20424;-83
2022/12/25 00:11:51;;;;;;;4.57;2.45;;;10.10;99.90;;;;;;6256328;28;20056;-82
2022/12/25 00:14:53;;;;;;;11.20;3.17;;;10.10;99.90;;;;;;6256629;28;20045;-82
2022/12/25 00:17:54;;;;;;;10.95;4.07;;;10.10;99.90;;;;;;6255579;28;20052;-83
2022/12/25 00:20:58;;;;;;;8.90;2.80;;;10.10;99.90;;;;;;6255320;28;20042;-82
2022/12/25 00:24:02;;;;;;;11.57;2.33;;;10.00;99.90;;;;;;6256423;28;20049;-83
2022/12/25 00:27:04;;;;;;;4.88;1.88;;;10.00;99.90;;;;;;6255377;28;20049;-82
2022/12/25 00:30:07;;;;;;;4.47;2.35;;;9.90;99.90;;;;;;6254524;28;20060;-83
2022/12/25 00:33:08;;;;;;;18.58;5.28;;;9.90;99.90;;;;;;6257677;28;20046;-82
2022/12/25 00:36:12;;;;;;;6.30;2.03;;;9.90;99.90;;;;;;6255771;28;20048;-83
2022/12/25 00:39:15;;;;;;;7.18;2.70;;;9.80;99.90;;;;;;6252983;28;20045;-82
2022/12/25 00:42:19;;;;;;;4.80;1.88;;;9.80;99.90;;;;;;6252755;28;20050;-82
2022/12/25 00:45:21;;;;;;;4.72;1.88;;;9.80;99.90;;;;;;6259475;28;20104;-82
2022/12/25 00:48:23;;;;;;;7.60;2.03;;;9.80;99.90;;;;;;6258385;28;20522;-83
2022/12/25 00:51:24;;;;;;;25.88;3.08;;;9.80;99.90;;;;;;6257304;28;20057;-83
2022/12/25 00:54:28;;;;;;;11.98;2.35;;;9.80;99.90;;;;;;6256102;28;20045;-81
2022/12/25 00:57:29;;;;;;;5.43;2.70;;;9.80;99.90;;;;;;6256542;28;20056;-81
2022/12/25 01:00:31;;;;;;;14.95;3.05;;;9.90;99.90;;;;;;6256575;28;20075;-82
2022/12/25 01:03:33;;;;;;;8.77;4.38;;;9.90;99.90;;;;;;6257705;28;20049;-82
2022/12/25 01:06:35;;;;;;;9.77;5.50;;;9.90;99.90;;;;;;6256370;28;20046;-81
2022/12/25 01:12:57;;;;;;;8.77;3.00;;;9.90;99.90;;;;;;6256417;28;20575;-82
2022/12/25 01:15:59;;;;;;;7.38;2.40;;;9.90;99.90;;;;;;6260029;28;20046;-80
2022/12/25 01:19:01;;;;;;;4.00;1.98;;;9.90;99.90;;;;;;6260221;28;20056;-80
2022/12/25 01:22:03;;;;;;;8.35;2.38;;;9.80;99.90;;;;;;6261819;28;20430;-81
2022/12/25 01:25:08;;;;;;;12.50;2.30;;;9.80;99.90;;;;;;6260162;28;20522;-80
2022/12/25 01:28:09;;;;;;;12.50;2.75;;;9.80;99.90;;;;;;6259516;28;20056;-81
2022/12/25 01:31:13;;;;;;;5.50;2.05;;;9.80;99.90;;;;;;6260377;28;20052;-81
2022/12/25 01:34:15;;;;;;;2.85;1.67;;;9.90;99.90;;;;;;6260139;28;20057;-80
2022/12/25 01:37:16;;;;;;;8.90;2.03;;;9.90;99.90;;;;;;6260553;28;20088;-79
2022/12/25 01:40:20;;;;;;;9.30;2.25;;;9.90;99.90;;;;;;6247609;28;20041;-80
2022/12/25 01:43:24;;;;;;;5.75;2.22;;;9.90;99.90;;;;;;6234167;28;20504;-81
2022/12/25 01:46:26;;;;;;;7.35;2.55;;;9.90;99.90;;;;;;6235678;28;20046;-82
2022/12/25 01:49:28;;;;;;;11.57;3.15;;;9.90;99.90;;;;;;6233399;28;20053;-81
2022/12/25 01:52:30;;;;;;;3.08;2.22;;;9.90;99.90;;;;;;6234690;28;20056;-80
2022/12/25 01:55:34;;;;;;;5.95;2.83;;;9.90;99.90;;;;;;6232018;28;20056;-81
2022/12/25 01:58:36;;;;;;;7.47;2.85;;;10.00;99.90;;;;;;6230346;28;20447;-81
2022/12/25 02:01:38;;;;;;;11.13;4.05;;;10.00;99.90;;;;;;6232212;28;20056;-81
2022/12/25 02:04:45;;;;;;;11.07;2.05;;;9.90;99.90;;;;;;6232211;28;20053;-81
2022/12/25 02:07:49;;;;;;;13.07;2.57;;;9.90;99.90;;;;;;6230918;28;20054;-81
2022/12/25 02:10:52;;;;;;;6.18;3.00;;;9.90;99.90;;;;;;6231861;28;20419;-80
2022/12/25 02:13:54;;;;;;;10.10;2.35;;;9.90;99.90;;;;;;6232764;28;20049;-81
2022/12/25 02:17:06;;;;;;;10.15;2.95;;;9.90;99.90;;;;;;6230566;28;20053;-81
2022/12/25 02:20:35;;;;;;;7.72;2.25;;;9.80;99.90;;;;;;6241487;28;20053;-80
2022/12/25 02:24:08;;;;;;;9.10;2.15;;;9.80;99.90;;;;;;6255898;28;20042;-81
2022/12/25 02:27:28;;;;;;;6.82;2.22;;;9.80;99.90;;;;;;6254856;28;20056;-85
2022/12/25 02:30:38;;;;;;;10.70;3.80;;;9.80;99.90;;;;;;6254478;28;20053;-82
2022/12/25 02:34:04;;;;;;;9.52;2.55;;;9.80;99.90;;;;;;6255155;28;20049;-81
2022/12/25 02:37:12;;;;;;;5.68;2.30;;;9.80;99.90;;;;;;6257741;28;20045;-80
2022/12/25 02:40:18;;;;;;;9.18;2.40;;;9.70;99.90;;;;;;6257714;28;20054;-80
2022/12/25 03:07:01;;;;;;;5.45;2.70;;;9.30;99.90;;;;;;6252885;28;20517;-83
2022/12/25 03:13:32;;;;;;;5.07;3.03;;;9.20;99.90;;;;;;6253207;28;20045;-82
2022/12/25 03:16:52;;;;;;;13.25;3.97;;;9.20;99.90;;;;;;6253620;28;20049;-81
2022/12/25 03:26:57;;;;;;;8.05;3.50;;;9.20;99.90;;;;;;6260135;28;20045;-80
2022/12/25 03:33:23;;;;;;;7.35;4.10;;;9.30;99.90;;;;;;6253958;28;20097;-81
2022/12/25 03:36:33;;;;;;;9.20;3.97;;;9.30;99.90;;;;;;6258135;28;20056;-82
2022/12/25 04:36:54;;;;;;;6.82;2.58;;;9.50;99.90;;;;;;6262798;28;20045;-80
2022/12/25 04:39:56;;;;;;;15.77;4.13;;;9.40;99.90;;;;;;6260346;28;20056;-80
2022/12/25 04:42:59;;;;;;;7.28;2.35;;;9.30;99.90;;;;;;6261584;28;20050;-81
2022/12/25 04:46:02;;;;;;;7.75;2.78;;;9.10;99.90;;;;;;6263198;28;20053;-81
2022/12/25 04:49:03;;;;;;;8.32;2.72;;;9.00;99.90;;;;;;6260609;28;20403;-82
2022/12/25 04:52:05;;;;;;;11.75;3.42;;;8.90;99.90;;;;;;6260402;28;20046;-82
2022/12/25 04:55:08;;;;;;;9.95;3.05;;;8.80;99.90;;;;;;6256854;28;20507;-82
2022/12/25 04:58:12;;;;;;;4.82;2.47;;;8.70;99.90;;;;;;6257573;28;20049;-83
2022/12/25 05:01:14;;;;;;;10.25;2.70;;;8.60;99.90;;;;;;6259197;28;20056;-82
2022/12/25 05:04:15;;;;;;;8.60;2.78;;;8.60;99.90;;;;;;6258499;28;20045;-83
2022/12/25 05:07:17;;;;;;;6.55;2.35;;;8.50;99.90;;;;;;6258113;28;20071;-80
2022/12/25 05:10:19;;;;;;;5.95;3.67;;;8.50;99.90;;;;;;6257260;28;20042;-82
2022/12/25 05:13:22;;;;;;;6.15;3.08;;;8.50;99.90;;;;;;6260217;28;20057;-83
2022/12/25 05:16:25;;;;;;;5.78;2.60;;;8.40;99.90;;;;;;6259160;28;20049;-82
2022/12/25 05:19:26;;;;;;;6.50;2.33;;;8.40;99.90;;;;;;6256965;28;20041;-82
2022/12/25 05:22:28;;;;;;;6.30;2.85;;;8.40;99.90;;;;;;6258089;28;20042;-81
2022/12/25 05:25:30;;;;;;;14.27;3.33;;;8.30;99.90;;;;;;6258978;28;20053;-81
2022/12/25 05:28:33;;;;;;;7.07;3.20;;;8.30;99.90;;;;;;6255900;28;20049;-82
2022/12/25 05:31:35;;;;;;;4.45;2.70;;;8.30;99.90;;;;;;6257013;28;20042;-82
2022/12/25 05:34:37;;;;;;;7.90;3.17;;;8.30;99.90;;;;;;6257739;28;20053;-83
2022/12/25 05:37:38;;;;;;;10.23;2.50;;;8.20;99.90;;;;;;6257060;28;20057;-81
2022/12/25 05:40:40;;;;;;;6.88;4.18;;;8.30;99.90;;;;;;6256349;28;20045;-83
2022/12/25 05:43:43;;;;;;;10.00;3.38;;;8.20;99.90;;;;;;6257504;28;20053;-82
2022/12/25 05:46:45;;;;;;;9.90;3.17;;;8.20;99.90;;;;;;6256009;28;20072;-82
2022/12/25 05:49:47;;;;;;;9.38;4.07;;;8.30;99.90;;;;;;6256769;28;20057;-82
2022/12/25 05:52:48;;;;;;;7.15;3.50;;;8.30;99.90;;;;;;6258194;28;20176;-83
2022/12/25 05:55:50;;;;;;;10.30;3.47;;;8.30;99.90;;;;;;6258280;28;20045;-83
2022/12/25 05:58:53;;;;;;;17.02;5.00;;;8.30;99.90;;;;;;6257103;28;20049;-82
2022/12/25 06:01:55;;;;;;;13.07;4.57;;;8.30;99.90;;;;;;6257657;28;20042;-80
2022/12/25 06:04:57;;;;;;;6.93;4.22;;;8.30;99.90;;;;;;6257552;28;20051;-81
2022/12/25 06:07:59;;;;;;;11.10;3.90;;;8.30;99.90;;;;;;6255951;28;20079;-81
2022/12/25 06:11:03;;;;;;;8.82;3.92;;;8.30;99.90;;;;;;6257241;28;20052;-81
2022/12/25 06:14:06;;;;;;;13.20;4.20;;;8.40;99.90;;;;;;6256497;28;20440;-81
2022/12/25 06:17:08;;;;;;;8.55;5.72;;;8.40;99.90;;;;;;6256007;28;20053;-82
2022/12/25 06:20:10;;;;;;;7.05;4.28;;;8.40;99.90;;;;;;6257289;28;20041;-81
2022/12/25 06:23:11;;;;;;;16.77;4.50;;;8.40;99.90;;;;;;6256312;28;20048;-80
2022/12/25 06:26:15;;;;;;;10.65;4.55;;;8.40;99.90;;;;;;6254121;28;20049;-81
2022/12/25 06:29:18;;;;;;;7.80;4.63;;;8.50;99.90;;;;;;6256877;28;20046;-81
2022/12/25 06:32:20;;;;;;;9.18;4.32;;;8.50;99.90;;;;;;6255028;28;20042;-82
2022/12/25 06:35:22;;;;;;;6.90;3.40;;;8.50;99.90;;;;;;6252574;28;20053;-82
2022/12/25 06:38:23;;;;;;;6.45;3.90;;;8.50;99.90;;;;;;6251580;28;20522;-82
2022/12/25 06:41:27;;;;;;;9.80;4.20;;;8.60;99.90;;;;;;6251795;28;20073;-81
2022/12/25 06:44:30;;;;;;;15.50;4.35;;;8.60;99.90;;;;;;6254145;28;20068;-82
2022/12/25 06:47:32;;;;;;;10.55;5.15;;;8.60;99.90;;;;;;6250299;28;20046;-83
2022/12/25 06:50:33;;;;;;;13.50;4.45;;;8.60;99.90;;;;;;6253991;28;20050;-81
2022/12/25 06:53:35;;;;;;;9.02;3.10;;;8.60;99.90;;;;;;6263036;28;20495;-81
2022/12/25 06:56:37;;;;;;;9.23;4.22;;;8.70;99.90;;;;;;6252149;28;20053;-83
2022/12/25 06:59:40;;;;;;;19.70;4.88;;;8.60;99.90;;;;;;6250295;28;20041;-83
2022/12/25 07:02:46;;;;;;;5.35;3.95;;;8.70;99.90;;;;;;6251812;28;20056;-83
2022/12/25 07:05:48;;;;;;;20.58;9.57;;;8.70;99.90;;;;;;6251796;28;20061;-83
2022/12/25 07:08:50;;;;;;;13.90;6.28;;;8.70;99.90;;;;;;6251172;28;20050;-82
2022/12/25 07:11:51;;;;;;;12.27;6.68;;;8.70;99.90;;;;;;6251685;28;20611;-83
2022/12/25 07:14:55;;;;;;;14.30;9.02;;;8.80;99.90;;;;;;6252508;28;20507;-83
2022/12/25 07:17:57;;;;;;;10.68;8.40;;;8.80;99.90;;;;;;6250942;28;20052;-83
2022/12/25 07:20:59;;;;;;;9.18;5.72;;;8.80;99.90;;;;;;6251117;28;20041;-83
2022/12/25 07:24:01;;;;;;;9.10;4.07;;;8.80;99.90;;;;;;6250478;28;20187;-82
2022/12/25 07:27:02;;;;;;;10.40;5.72;;;8.80;99.90;;;;;;6249393;28;20065;-83
2022/12/25 07:30:07;;;;;;;8.45;5.13;;;8.70;99.90;;;;;;6250466;28;20049;-83
2022/12/25 07:33:08;;;;;;;11.25;9.05;;;8.70;99.90;;;;;;6225577;28;20053;-81
2022/12/25 07:36:11;;;;;;;16.90;7.55;;;8.70;99.90;;;;;;6251004;28;20049;-82
2022/12/25 07:39:13;;;;;;;31.27;21.35;;;8.70;99.90;;;;;;6250502;28;20052;-83
2022/12/25 07:42:14;;;;;;;20.48;14.10;;;8.70;99.90;;;;;;6249951;28;20132;-82
2022/12/25 07:45:17;;;;;;;17.92;14.95;;;8.70;99.90;;;;;;6251584;28;20060;-82
2022/12/25 07:48:19;;;;;;;10.15;9.00;;;8.70;99.90;;;;;;6249320;28;20056;-83
2022/12/25 07:51:21;;;;;;;12.30;7.30;;;8.80;99.90;;;;;;6251052;28;20041;-83
2022/12/25 07:54:23;;;;;;;12.80;6.43;;;8.80;99.90;;;;;;6255035;28;20054;-83
2022/12/25 07:57:24;;;;;;;10.23;6.15;;;8.90;99.90;;;;;;6255580;28;20090;-82
2022/12/25 08:00:31;;;;;;;6.63;5.15;;;8.90;99.90;;;;;;6254928;28;20558;-83
2022/12/25 08:03:34;;;;;;;8.25;5.90;;;8.90;99.90;;;;;;6255856;28;20051;-80
2022/12/25 08:06:36;;;;;;;14.85;6.70;;;8.90;99.90;;;;;;6255642;28;20045;-82
2022/12/25 08:09:38;;;;;;;9.77;5.60;;;8.90;99.90;;;;;;6254760;28;20049;-82
2022/12/25 08:12:39;;;;;;;19.65;6.65;;;8.90;99.90;;;;;;6256534;28;20045;-82
2022/12/25 08:15:42;;;;;;;10.32;5.35;;;8.90;99.90;;;;;;6256240;28;20041;-82
2022/12/25 08:18:44;;;;;;;9.65;5.10;;;9.00;99.90;;;;;;6253864;28;20419;-82
2022/12/25 08:21:46;;;;;;;9.93;5.43;;;9.10;99.90;;;;;;6256212;28;20050;-83
2022/12/25 08:24:48;;;;;;;7.95;4.82;;;9.10;99.90;;;;;;6255255;28;20053;-80
2022/12/25 08:27:49;;;;;;;12.95;7.80;;;9.20;99.90;;;;;;6255116;28;20049;-81
2022/12/25 08:30:53;;;;;;;9.90;3.60;;;9.30;99.90;;;;;;6255538;28;20567;-83
2022/12/25 08:33:56;;;;;;;10.98;4.85;;;9.40;99.90;;;;;;6256124;28;20057;-82
2022/12/25 08:36:58;;;;;;;11.63;5.32;;;9.50;99.90;;;;;;6253795;28;20057;-82
2022/12/25 08:40:00;;;;;;;10.98;6.05;;;9.50;99.90;;;;;;6252818;28;20045;-80
2022/12/25 08:43:03;;;;;;;10.43;4.20;;;9.60;99.90;;;;;;6255274;28;20416;-82
2022/12/25 08:46:06;;;;;;;6.95;3.72;;;9.50;99.90;;;;;;6255636;28;20064;-82
2022/12/25 08:49:08;;;;;;;10.93;4.00;;;9.50;99.90;;;;;;6256087;28;20139;-82
2022/12/25 08:52:10;;;;;;;12.98;3.85;;;9.60;99.90;;;;;;6256417;28;20607;-82
2022/12/25 08:55:12;;;;;;;12.90;6.43;;;9.70;99.90;;;;;;6255922;28;20049;-83
2022/12/25 08:58:15;;;;;;;555.85;365.00;;;9.90;99.90;;;;;;6254849;28;20422;-82
2022/12/25 09:01:18;;;;;;;196.73;117.40;;;10.00;99.90;;;;;;6256729;28;20423;-83
2022/12/25 09:04:20;;;;;;;66.32;35.55;;;10.30;99.90;;;;;;6254714;28;20053;-83
2022/12/25 09:07:21;;;;;;;19.80;12.15;;;10.50;99.90;;;;;;6259859;28;20613;-82
2022/12/25 09:10:23;;;;;;;25.92;12.85;;;10.80;99.90;;;;;;6259750;28;20061;-80
2022/12/25 09:13:25;;;;;;;13.18;9.18;;;11.10;99.90;;;;;;6258934;28;20046;-83
2022/12/25 09:16:28;;;;;;;14.57;9.60;;;11.40;99.90;;;;;;6247906;28;20041;-81
2022/12/25 09:19:30;;;;;;;5.60;4.05;;;11.80;99.90;;;;;;6271937;28;20041;-79
2022/12/25 09:22:33;;;;;;;9.20;6.28;;;12.20;99.90;;;;;;6256784;28;20052;-81
2022/12/25 09:25:34;;;;;;;14.85;10.20;;;12.60;99.90;;;;;;6253132;28;20068;-81
2022/12/25 09:28:36;;;;;;;24.20;21.77;;;13.00;99.90;;;;;;6253602;28;20053;-80
2022/12/25 09:31:39;;;;;;;11.30;6.88;;;13.10;99.90;;;;;;6254996;28;20056;-79
2022/12/25 09:34:41;;;;;;;9.20;7.38;;;13.20;99.90;;;;;;6254968;28;20526;-78
2022/12/25 09:37:42;;;;;;;9.20;4.65;;;13.30;99.90;;;;;;6254919;28;20622;-80
2022/12/25 09:40:44;;;;;;;25.42;4.80;;;13.40;99.90;;;;;;6255373;28;20042;-78
2022/12/25 09:43:49;;;;;;;6.70;3.67;;;13.50;99.90;;;;;;6255104;28;20045;-82
2022/12/25 09:46:56;;;;;;;4.35;3.67;;;13.70;99.90;;;;;;6256216;28;20045;-80
2022/12/25 09:50:04;;;;;;;6.57;4.80;;;13.90;99.90;;;;;;6257017;28;20045;-80
2022/12/25 09:53:09;;;;;;;4.90;3.90;;;14.10;99.90;;;;;;6258031;28;20053;-81
2022/12/25 09:56:16;;;;;;;4.05;3.15;;;14.30;99.90;;;;;;6256926;28;20056;-81
2022/12/25 09:59:23;;;;;;;5.10;4.38;;;14.50;99.90;;;;;;6252701;28;20045;-81
2022/12/25 10:02:41;;;;;;;4.70;3.50;;;14.70;99.90;;;;;;6253663;28;20503;-81
2022/12/25 10:06:03;;;;;;;5.55;3.22;;;14.90;99.90;;;;;;6253242;28;20060;-81
2022/12/25 10:09:27;;;;;;;20.48;14.95;;;15.20;99.90;;;;;;6253957;28;20057;-81
2022/12/25 10:12:45;;;;;;;9.45;6.30;;;15.50;99.90;;;;;;6253611;28;20060;-81
2022/12/25 10:15:54;;;;;;;7.23;4.90;;;15.60;99.90;;;;;;6253859;28;20053;-82
2022/12/25 10:19:24;;;;;;;4.88;3.90;;;15.60;99.90;;;;;;6260082;28;20034;-81
2022/12/25 10:22:34;;;;;;;4.80;3.08;;;15.50;99.90;;;;;;6248261;28;20045;-80
2022/12/25 10:25:38;;;;;;;6.53;3.35;;;15.60;99.90;;;;;;6254693;28;20053;-80
2022/12/25 10:28:43;;;;;;;4.90;3.78;;;15.70;99.90;;;;;;6252044;28;20053;-80
2022/12/25 10:31:46;;;;;;;7.55;6.07;;;15.90;99.90;;;;;;6252875;28;20065;-80
2022/12/25 10:34:49;;;;;;;9.45;4.20;;;16.10;99.90;;;;;;6252367;28;20068;-80
2022/12/25 10:37:55;;;;;;;6.85;3.60;;;16.40;99.90;;;;;;6252454;28;20491;-80
2022/12/25 10:41:10;;;;;;;3.67;3.15;;;16.80;99.90;;;;;;6252738;28;20415;-81
2022/12/25 10:44:14;;;;;;;4.95;2.47;;;17.20;99.90;;;;;;6254798;28;20344;-82
2022/12/25 10:47:25;;;;;;;5.93;2.15;;;17.30;99.90;;;;;;6252595;28;20068;-79
2022/12/25 10:50:28;;;;;;;3.40;2.50;;;17.40;99.90;;;;;;6250477;28;20051;-80
2022/12/25 10:53:38;;;;;;;4.93;2.50;;;17.60;99.90;;;;;;6252995;28;20057;-81
2022/12/25 10:56:41;;;;;;;3.47;2.13;;;17.70;99.90;;;;;;6252889;28;20053;-81
2022/12/25 10:59:44;;;;;;;6.90;2.60;;;17.70;99.90;;;;;;6250438;28;20065;-80
2022/12/25 11:02:46;;;;;;;3.92;2.25;;;17.50;99.90;;;;;;6252497;28;20045;-81
2022/12/25 11:05:51;;;;;;;5.60;2.47;;;17.30;99.90;;;;;;6252749;28;20045;-81
2022/12/25 11:08:56;;;;;;;4.35;2.22;;;17.30;99.90;;;;;;6251128;28;20041;-81
2022/12/25 11:11:58;;;;;;;4.88;2.38;;;17.20;99.90;;;;;;6250895;28;20048;-80
2022/12/25 11:15:03;;;;;;;4.07;2.13;;;17.20;99.90;;;;;;6251081;28;20549;-81
2022/12/25 11:18:17;;;;;;;3.78;1.83;;;17.10;99.90;;;;;;6251599;28;20033;-81
2022/12/25 11:21:29;;;;;;;11.48;2.83;;;17.00;99.90;;;;;;6227384;28;20106;-82
2022/12/25 11:24:32;;;;;;;4.10;1.88;;;16.70;99.90;;;;;;6234748;28;20045;-82
2022/12/25 11:27:33;;;;;;;2.78;1.88;;;16.50;99.90;;;;;;6249419;28;20511;-81
2022/12/25 11:30:37;;;;;;;4.85;1.90;;;16.10;99.90;;;;;;6249050;28;20049;-82
2022/12/25 11:33:44;;;;;;;3.92;1.40;;;16.10;99.90;;;;;;6253266;28;20049;-81
2022/12/25 11:36:49;;;;;;;3.55;1.58;;;16.00;99.90;;;;;;6252672;28;20041;-81
2022/12/25 11:39:51;;;;;;;3.38;2.15;;;15.90;99.90;;;;;;6252305;28;20064;-82
2022/12/25 11:42:56;;;;;;;2.78;1.98;;;16.00;99.90;;;;;;6252474;28;20053;-81
2022/12/25 11:46:09;;;;;;;4.38;2.53;;;16.10;99.90;;;;;;6253311;28;20050;-80
2022/12/25 11:49:14;;;;;;;3.75;1.60;;;16.30;99.90;;;;;;6253662;28;20194;-80
2022/12/25 11:52:18;;;;;;;3.53;2.25;;;16.70;99.90;;;;;;6251929;28;20050;-83
2022/12/25 11:55:26;;;;;;;2.70;1.83;;;16.70;99.90;;;;;;6251356;28;20373;-81
2022/12/25 11:58:33;;;;;;;4.13;1.60;;;17.00;99.90;;;;;;6250715;28;20049;-81
2022/12/25 12:01:41;;;;;;;7.43;2.72;;;17.60;99.90;;;;;;6253218;28;20046;-82
2022/12/25 12:04:47;;;;;;;2.40;1.88;;;18.30;99.90;;;;;;6252798;28;20049;-82
2022/12/25 12:07:57;;;;;;;2.45;1.35;;;19.10;99.90;;;;;;6251572;28;20045;-82
2022/12/25 12:11:16;;;;;;;2.22;1.70;;;19.50;99.90;;;;;;6252371;28;20045;-79
2022/12/25 12:14:29;;;;;;;5.20;2.00;;;20.10;99.90;;;;;;6250476;28;20049;-78
2022/12/25 12:17:32;;;;;;;4.30;1.73;;;20.50;99.90;;;;;;6245708;28;20049;-78
2022/12/25 12:20:35;;;;;;;4.05;2.00;;;20.90;99.90;;;;;;6246999;28;20037;-79
2022/12/25 12:23:49;;;;;;;5.03;2.53;;;21.20;99.90;;;;;;6240993;28;20098;-78
2022/12/25 12:27:01;;;;;;;4.05;1.77;;;21.40;99.90;;;;;;6246717;28;20050;-78
2022/12/25 12:30:04;;;;;;;6.20;3.10;;;21.30;99.90;;;;;;6237494;28;20594;-78
2022/12/25 12:33:07;;;;;;;3.17;2.22;;;20.90;99.90;;;;;;6246412;28;20079;-79
2022/12/25 12:36:13;;;;;;;3.35;2.63;;;21.00;99.90;;;;;;6246854;28;20032;-78
2022/12/25 12:39:25;;;;;;;4.15;2.40;;;21.00;99.90;;;;;;6249261;28;20041;-79
2022/12/25 12:42:30;;;;;;;4.03;2.40;;;21.00;99.90;;;;;;6250354;28;20049;-78
2022/12/25 12:45:35;;;;;;;6.32;2.80;;;20.90;99.90;;;;;;6251741;28;20054;-78
2022/12/25 12:48:41;;;;;;;2.42;1.90;;;20.90;99.90;;;;;;6246842;28;20423;-81
2022/12/25 12:51:42;;;;;;;6.57;2.85;;;21.10;99.90;;;;;;6254772;28;20042;-80
2022/12/25 12:54:56;;;;;;;3.17;2.78;;;21.70;99.90;;;;;;6252443;28;20045;-78
2022/12/25 12:57:59;;;;;;;2.45;2.08;;;21.60;99.90;;;;;;6251004;28;20051;-79
2022/12/25 13:01:13;;;;;;;5.80;2.67;;;21.70;99.90;;;;;;6250309;28;20503;-78
2022/12/25 13:04:51;;;;;;;3.83;2.65;;;21.60;99.90;;;;;;6251150;28;20511;-79
2022/12/25 13:08:02;;;;;;;8.30;2.58;;;21.90;99.90;;;;;;6254274;28;20056;-79
2022/12/25 13:11:10;;;;;;;2.35;2.08;;;22.30;99.90;;;;;;6254308;28;20060;-80
2022/12/25 13:14:14;;;;;;;8.30;7.50;;;22.30;99.90;;;;;;6255608;28;20135;-79
2022/12/25 13:17:19;;;;;;;4.03;2.47;;;21.90;99.90;;;;;;6256397;28;20060;-78
2022/12/25 13:20:28;;;;;;;5.05;2.53;;;21.50;99.90;;;;;;6255604;28;20050;-79
2022/12/25 13:23:32;;;;;;;3.78;2.28;;;20.80;99.90;;;;;;6255525;28;20046;-80
2022/12/25 13:26:35;;;;;;;5.18;2.05;;;20.20;99.90;;;;;;6257799;28;20068;-81
2022/12/25 13:29:38;;;;;;;3.88;1.88;;;19.70;99.90;;;;;;6262235;28;20045;-82
2022/12/25 13:32:40;;;;;;;6.85;3.33;;;19.30;99.90;;;;;;6259784;28;20042;-81
2022/12/25 13:35:43;;;;;;;7.43;2.95;;;19.00;99.90;;;;;;6260316;28;20105;-82
2022/12/25 13:38:46;;;;;;;3.42;1.88;;;18.80;99.90;;;;;;6258824;28;20053;-82
2022/12/25 13:42:08;;;;;;;3.33;2.10;;;18.30;99.90;;;;;;6256857;28;20041;-82
2022/12/25 13:45:21;;;;;;;4.07;1.88;;;18.10;99.90;;;;;;6257316;28;20483;-82
2022/12/25 13:48:24;;;;;;;2.90;2.35;;;17.90;99.90;;;;;;6258371;28;20056;-82
2022/12/25 13:51:27;;;;;;;5.47;2.78;;;17.70;99.90;;;;;;6257652;28;20041;-82
2022/12/25 13:54:29;;;;;;;3.75;2.10;;;17.70;99.90;;;;;;6256434;28;20045;-82
2022/12/25 13:57:36;;;;;;;2.22;2.08;;;17.50;99.90;;;;;;6258661;28;20057;-82
2022/12/25 14:00:40;;;;;;;4.43;3.20;;;17.40;99.90;;;;;;6257848;28;20048;-83
2022/12/25 14:03:44;;;;;;;2.15;1.70;;;17.40;99.90;;;;;;6258968;28;20136;-82
2022/12/25 14:06:46;;;;;;;5.22;1.92;;;17.40;99.90;;;;;;6257998;28;20101;-82
2022/12/25 14:09:50;;;;;;;3.50;3.20;;;17.30;99.90;;;;;;6257606;28;20049;-83
2022/12/25 14:12:56;;;;;;;4.40;1.98;;;17.10;99.90;;;;;;6254480;28;20045;-83
2022/12/25 14:15:58;;;;;;;4.85;2.35;;;16.80;99.90;;;;;;6253533;28;20045;-83
2022/12/25 14:19:02;;;;;;;1.90;1.75;;;16.70;99.90;;;;;;6253018;28;20082;-82
2022/12/25 14:22:10;;;;;;;2.85;1.90;;;16.60;99.90;;;;;;6253740;28;20054;-82
2022/12/25 14:25:15;;;;;;;2.63;1.90;;;16.40;99.90;;;;;;6253614;28;20053;-82
2022/12/25 14:28:21;;;;;;;5.55;2.60;;;16.20;99.90;;;;;;6253343;28;20055;-83
2022/12/25 14:31:24;;;;;;;6.72;3.20;;;16.00;99.90;;;;;;6252776;28;20516;-83
2022/12/25 14:34:29;;;;;;;3.58;2.35;;;15.70;99.90;;;;;;6252878;28;20500;-83
2022/12/25 14:37:32;;;;;;;7.25;6.35;;;15.50;99.90;;;;;;6253454;28;20172;-83
2022/12/25 14:40:34;;;;;;;2.42;2.00;;;15.40;99.90;;;;;;6252518;28;20046;-82
2022/12/25 14:43:39;;;;;;;5.00;2.83;;;15.30;99.90;;;;;;6254212;28;20123;-81
2022/12/25 14:46:40;;;;;;;4.03;2.25;;;15.10;99.90;;;;;;6257986;28;20057;-82
2022/12/25 14:49:42;;;;;;;7.72;2.45;;;15.00;99.90;;;;;;6256408;28;20246;-84
2022/12/25 14:52:45;;;;;;;2.90;2.35;;;14.80;99.90;;;;;;6253557;28;20045;-81
2022/12/25 14:55:50;;;;;;;3.00;2.22;;;14.70;99.90;;;;;;6252092;28;20137;-82
2022/12/25 14:58:55;;;;;;;5.15;3.05;;;14.50;99.90;;;;;;6251875;28;20510;-82
2022/12/25 15:01:59;;;;;;;4.38;2.72;;;14.40;99.90;;;;;;6253044;28;20036;-83
2022/12/25 15:05:01;;;;;;;26.55;13.23;;;14.30;99.90;;;;;;6251186;28;20045;-83
2022/12/25 15:08:17;;;;;;;10.88;7.13;;;14.10;99.90;;;;;;6251846;28;20060;-82
2022/12/25 15:11:19;;;;;;;67.38;47.28;;;14.00;99.90;;;;;;6252646;28;20037;-81
2022/12/25 15:14:22;;;;;;;26.60;17.85;;;14.00;99.90;;;;;;6252609;28;20072;-81
2022/12/25 15:17:26;;;;;;;13.80;10.00;;;14.00;99.90;;;;;;6252606;28;20049;-81
2022/12/25 15:20:31;;;;;;;10.65;6.38;;;13.90;99.90;;;;;;6252402;28;20045;-81
2022/12/25 15:23:40;;;;;;;9.90;7.10;;;13.80;99.90;;;;;;6252699;28;20057;-82
2022/12/25 15:26:46;;;;;;;11.30;5.68;;;13.70;99.90;;;;;;6252743;28;20049;-81
2022/12/25 15:29:51;;;;;;;7.47;5.10;;;13.50;99.90;;;;;;6246446;28;20056;-81
2022/12/25 15:32:52;;;;;;;5.07;3.60;;;13.40;99.90;;;;;;6251630;28;20057;-79
2022/12/25 15:35:54;;;;;;;5.45;2.97;;;13.20;99.90;;;;;;6250792;28;20427;-79
2022/12/25 15:38:56;;;;;;;9.02;2.53;;;13.10;99.90;;;;;;6249900;28;20507;-79
2022/12/25 15:42:11;;;;;;;5.22;2.10;;;12.80;99.90;;;;;;6249717;28;20049;-79
2022/12/25 15:45:20;;;;;;;3.05;2.03;;;12.70;99.90;;;;;;6249048;28;20061;-79
2022/12/25 15:48:22;;;;;;;8.45;3.45;;;12.60;99.90;;;;;;6247103;28;20095;-81
2022/12/25 15:51:24;;;;;;;7.63;3.85;;;12.50;99.90;;;;;;6247531;28;20129;-79
2022/12/25 15:54:25;;;;;;;3.08;2.15;;;12.40;99.90;;;;;;6216002;28;20050;-81
2022/12/25 15:57:27;;;;;;;7.57;2.42;;;12.30;99.90;;;;;;6245470;28;20136;-78
2022/12/25 16:00:30;;;;;;;2.75;2.30;;;12.20;99.90;;;;;;6247190;28;20041;-79
2022/12/25 16:03:32;;;;;;;3.30;2.50;;;12.10;99.90;;;;;;6247020;28;20052;-79
2022/12/25 16:06:33;;;;;;;4.97;2.63;;;12.10;99.90;;;;;;6247829;28;20046;-80
2022/12/25 16:09:35;;;;;;;8.75;2.72;;;12.00;99.90;;;;;;6250377;28;20057;-80
2022/12/25 16:12:37;;;;;;;6.35;3.78;;;12.00;99.90;;;;;;6250684;28;20499;-80
2022/12/25 16:15:40;;;;;;;4.78;2.38;;;11.90;99.90;;;;;;6254010;28;20061;-80
2022/12/25 16:18:42;;;;;;;6.95;2.42;;;11.90;99.90;;;;;;6254624;28;20049;-79
2022/12/25 16:21:46;;;;;;;5.45;2.47;;;11.80;99.90;;;;;;6255000;28;20049;-80
2022/12/25 16:24:48;;;;;;;7.88;2.67;;;11.60;99.90;;;;;;6254353;28;20049;-80
2022/12/25 16:27:49;;;;;;;5.55;2.45;;;11.50;99.90;;;;;;6254462;28;20033;-80
2022/12/25 16:30:52;;;;;;;7.80;2.92;;;11.40;99.90;;;;;;6253842;28;20045;-80
2022/12/25 16:33:54;;;;;;;2.75;2.45;;;11.30;99.90;;;;;;6259290;28;20038;-81
2022/12/25 16:36:56;;;;;;;4.15;2.33;;;11.30;99.90;;;;;;6260935;28;20052;-81
2022/12/25 16:39:58;;;;;;;12.77;8.88;;;11.10;99.90;;;;;;6258899;28;20064;-81
2022/12/25 16:42:59;;;;;;;9.23;5.65;;;11.00;99.90;;;;;;6260301;28;20050;-81
2022/12/25 16:46:09;;;;;;;6.18;3.65;;;11.00;99.90;;;;;;6261307;28;20063;-80
2022/12/25 16:49:11;;;;;;;4.03;3.13;;;10.90;99.90;;;;;;6258470;28;20050;-81
2022/12/25 16:52:12;;;;;;;9.38;3.03;;;10.90;99.90;;;;;;6259672;28;20760;-81
2022/12/25 16:55:14;;;;;;;4.15;3.13;;;10.70;99.90;;;;;;6258656;28;20511;-82
2022/12/25 16:58:20;;;;;;;5.40;3.35;;;10.70;99.90;;;;;;6259242;28;20076;-80
2022/12/25 17:01:23;;;;;;;4.30;3.35;;;10.60;99.90;;;;;;6256343;28;20122;-79
2022/12/25 17:04:28;;;;;;;4.72;2.95;;;10.80;99.90;;;;;;6259210;28;20057;-81
2022/12/25 17:07:30;;;;;;;30.45;19.85;;;10.90;99.90;;;;;;6256174;28;20116;-81
2022/12/25 17:10:32;;;;;;;11.45;10.27;;;10.90;99.90;;;;;;6259831;28;20048;-81
2022/12/25 17:13:33;;;;;;;13.48;6.15;;;11.00;99.90;;;;;;6259812;28;20080;-81
2022/12/25 17:16:37;;;;;;;15.68;9.68;;;11.10;99.90;;;;;;6258145;28;20052;-81
2022/12/25 17:19:39;;;;;;;12.65;7.13;;;11.30;99.90;;;;;;6258399;28;20045;-80
2022/12/25 17:22:41;;;;;;;25.23;21.23;;;11.40;99.90;;;;;;6258715;28;20053;-81
2022/12/25 17:25:42;;;;;;;12.85;11.40;;;11.50;99.90;;;;;;6248631;28;20049;-82
2022/12/25 17:28:44;;;;;;;8.85;4.35;;;11.50;99.90;;;;;;6255143;28;20056;-82
2022/12/25 17:31:47;;;;;;;6.43;5.20;;;11.30;99.90;;;;;;6252768;28;20061;-82
2022/12/25 17:34:49;;;;;;;8.45;4.78;;;11.10;99.90;;;;;;6254564;28;20052;-83
2022/12/25 17:37:50;;;;;;;7.30;3.85;;;10.80;99.90;;;;;;6253563;28;20053;-82
2022/12/25 17:40:56;;;;;;;6.63;4.78;;;10.70;99.90;;;;;;6256419;28;20143;-82